Time;durP1;ratioP1;P1;durP2;ratioP2;P2;SDS_P1;SDS_P2;PMS_P1;PMS_P2;Temp;Humidity;BMP_temperature;BMP_pressure;BME280_temperature;BME280_humidity;BME280_pressure;Samples;Min_cycle;Max_cycle;Signal;HPM_P1;HPM_P2
2020/12/11 00:00:28;;;;;;;22.27;20.33;;;2.60;99.90;;;;;;4971616;28;20451;-76
2020/12/11 00:02:54;;;;;;;24.33;22.13;;;2.60;99.90;;;;;;4973440;28;20456;-77
2020/12/11 00:05:21;;;;;;;22.60;20.60;;;2.60;99.90;;;;;;4972367;28;20519;-77
2020/12/11 00:07:47;;;;;;;24.27;22.00;;;2.60;99.90;;;;;;4991014;28;20465;-76
2020/12/11 00:10:15;;;;;;;22.73;20.70;;;2.60;99.90;;;;;;4988947;28;20433;-77
2020/12/11 00:12:41;;;;;;;23.93;21.70;;;2.60;99.90;;;;;;4973350;28;20442;-76
2020/12/11 00:15:08;;;;;;;21.53;19.70;;;2.60;99.90;;;;;;4971748;28;21150;-77
2020/12/11 00:17:35;;;;;;;23.57;21.50;;;2.60;99.90;;;;;;4972975;28;20557;-77
2020/12/11 00:20:03;;;;;;;23.70;21.60;;;2.60;99.90;;;;;;4972017;28;20450;-77
2020/12/11 00:22:30;;;;;;;23.27;21.10;;;2.50;99.90;;;;;;4992363;28;20960;-77
2020/12/11 00:24:57;;;;;;;22.73;20.47;;;2.50;99.90;;;;;;4980860;28;20447;-77
2020/12/11 00:27:23;;;;;;;22.77;20.67;;;2.60;99.90;;;;;;4973614;28;20470;-77
2020/12/11 00:29:49;;;;;;;23.33;21.13;;;2.60;99.90;;;;;;4971835;28;20450;-77
2020/12/11 00:32:16;;;;;;;22.47;20.47;;;2.50;99.90;;;;;;4984917;28;20500;-77
2020/12/11 00:34:42;;;;;;;23.23;21.03;;;2.50;99.90;;;;;;4972393;28;21039;-77
2020/12/11 00:37:08;;;;;;;22.63;20.53;;;2.50;99.90;;;;;;4973779;28;20472;-77
2020/12/11 00:39:36;;;;;;;22.10;20.03;;;2.50;99.90;;;;;;4972462;28;20480;-77
2020/12/11 00:42:02;;;;;;;22.67;20.57;;;2.50;99.90;;;;;;4971924;28;20970;-77
2020/12/11 00:44:28;;;;;;;22.57;20.50;;;2.50;99.90;;;;;;4976984;28;20462;-77
2020/12/11 00:46:56;;;;;;;22.33;20.33;;;2.50;99.90;;;;;;4982066;28;20943;-77
2020/12/11 00:49:23;;;;;;;22.93;20.73;;;2.40;99.90;;;;;;4971007;28;20996;-77
2020/12/11 00:51:53;;;;;;;22.17;20.17;;;2.40;99.90;;;;;;4971294;28;20817;-77
2020/12/11 00:54:20;;;;;;;21.57;19.53;;;2.40;99.90;;;;;;4970953;28;20456;-77
2020/12/11 00:56:48;;;;;;;23.63;21.43;;;2.40;99.90;;;;;;4979150;28;20486;-77
2020/12/11 00:59:14;;;;;;;24.20;21.90;;;2.40;99.90;;;;;;4976622;28;20513;-77
2020/12/11 01:01:40;;;;;;;24.20;22.00;;;2.30;99.90;;;;;;4972225;28;20479;-77
2020/12/11 01:04:07;;;;;;;23.83;21.40;;;2.40;99.90;;;;;;4972352;28;20510;-77
2020/12/11 01:06:33;;;;;;;23.00;20.80;;;2.30;99.90;;;;;;4970866;28;20461;-77
2020/12/11 01:08:59;;;;;;;25.30;22.90;;;2.30;99.90;;;;;;4976758;28;20527;-77
2020/12/11 01:11:26;;;;;;;23.47;21.17;;;2.30;99.90;;;;;;4978805;28;20501;-77
2020/12/11 01:13:53;;;;;;;23.53;21.33;;;2.30;99.90;;;;;;4970692;28;20449;-77
2020/12/11 01:16:19;;;;;;;23.37;21.17;;;2.30;99.90;;;;;;4972123;28;20480;-77
2020/12/11 01:18:45;;;;;;;22.43;20.37;;;2.30;99.90;;;;;;4970037;28;21014;-77
2020/12/11 01:21:12;;;;;;;23.43;21.13;;;2.20;99.90;;;;;;4971011;28;20457;-77
2020/12/11 01:23:38;;;;;;;23.00;20.67;;;2.20;99.90;;;;;;4972009;28;20456;-78
2020/12/11 01:26:08;;;;;;;24.10;21.70;;;2.20;99.90;;;;;;4972225;28;20436;-77
2020/12/11 01:28:34;;;;;;;24.63;22.20;;;2.20;99.90;;;;;;4969959;28;20575;-77
2020/12/11 01:31:02;;;;;;;23.03;20.93;;;2.10;99.90;;;;;;4970685;28;20488;-77
2020/12/11 01:33:28;;;;;;;24.97;22.37;;;2.10;99.90;;;;;;4971089;28;20966;-77
2020/12/11 01:35:55;;;;;;;24.53;22.13;;;2.00;99.90;;;;;;4970757;28;20508;-77
2020/12/11 01:38:22;;;;;;;24.47;22.20;;;1.90;99.90;;;;;;4980064;28;20485;-77
2020/12/11 01:40:48;;;;;;;23.73;21.40;;;1.90;99.90;;;;;;4987530;28;20591;-78
2020/12/11 01:43:19;;;;;;;23.77;21.37;;;1.80;99.90;;;;;;4972171;28;20492;-77
2020/12/11 01:45:45;;;;;;;23.27;20.97;;;1.70;99.90;;;;;;4971631;28;20437;-77
2020/12/11 01:48:12;;;;;;;23.80;21.47;;;1.60;99.90;;;;;;4971399;28;20882;-77
2020/12/11 01:50:41;;;;;;;23.87;21.43;;;1.60;99.90;;;;;;4980850;28;20498;-77
2020/12/11 01:53:09;;;;;;;24.60;21.93;;;1.50;99.90;;;;;;4971853;28;20462;-77
2020/12/11 01:55:38;;;;;;;25.10;22.63;;;1.40;99.90;;;;;;4970511;28;20457;-77
2020/12/11 01:58:10;;;;;;;24.30;21.80;;;1.40;99.90;;;;;;4970341;28;20482;-77
2020/12/11 02:00:40;;;;;;;25.83;23.23;;;1.30;99.90;;;;;;4971672;28;20453;-77
2020/12/11 02:03:08;;;;;;;25.10;22.70;;;1.30;99.90;;;;;;4971549;28;20438;-76
2020/12/11 02:05:35;;;;;;;24.97;22.47;;;1.20;99.90;;;;;;4970189;28;20504;-77
2020/12/11 02:08:02;;;;;;;26.27;23.57;;;1.20;99.90;;;;;;4971606;28;20982;-77
2020/12/11 02:10:29;;;;;;;25.93;23.27;;;1.20;99.90;;;;;;4978569;28;20503;-77
2020/12/11 02:12:55;;;;;;;25.97;23.37;;;1.10;99.90;;;;;;4989857;28;20446;-77
2020/12/11 02:15:21;;;;;;;26.67;23.87;;;1.10;99.90;;;;;;4976380;28;20950;-77
2020/12/11 02:17:48;;;;;;;26.57;23.87;;;1.00;99.90;;;;;;4971260;28;20555;-77
2020/12/11 02:20:14;;;;;;;26.13;23.50;;;1.00;99.90;;;;;;4970953;28;20433;-77
2020/12/11 02:22:41;;;;;;;29.00;25.50;;;1.00;99.90;;;;;;4970169;28;20516;-77
2020/12/11 02:25:08;;;;;;;28.03;25.13;;;1.00;99.90;;;;;;4971462;28;20516;-77
2020/12/11 02:27:34;;;;;;;29.83;25.80;;;1.00;99.90;;;;;;4997877;23;20464;-80
2020/12/11 02:30:01;;;;;;;30.23;25.77;;;1.00;99.90;;;;;;5028560;28;20475;-81
2020/12/11 02:32:27;;;;;;;29.17;26.07;;;1.00;99.90;;;;;;5029250;28;20497;-80
2020/12/11 02:34:53;;;;;;;29.47;26.47;;;1.00;99.90;;;;;;5029508;28;20443;-81
2020/12/11 02:37:20;;;;;;;27.57;24.70;;;1.00;99.90;;;;;;5030963;28;20565;-81
2020/12/11 02:39:47;;;;;;;27.77;24.77;;;1.00;99.90;;;;;;5029774;28;20501;-81
2020/12/11 02:42:13;;;;;;;29.43;26.23;;;1.00;99.90;;;;;;5030977;28;20868;-80
2020/12/11 02:44:39;;;;;;;29.77;26.57;;;1.00;99.90;;;;;;5033142;28;20442;-80
2020/12/11 02:47:06;;;;;;;29.30;26.17;;;1.00;99.90;;;;;;5034643;28;21168;-80
2020/12/11 02:49:32;;;;;;;27.97;25.07;;;1.00;99.90;;;;;;5033798;28;21070;-80
2020/12/11 02:51:58;;;;;;;29.10;26.00;;;0.90;99.90;;;;;;5034402;28;20869;-80
2020/12/11 02:54:25;;;;;;;35.43;27.73;;;0.90;99.90;;;;;;5033171;28;20959;-81
2020/12/11 02:56:52;;;;;;;28.93;25.80;;;0.90;99.90;;;;;;5033254;28;20451;-80
2020/12/11 02:59:19;;;;;;;28.47;25.40;;;0.90;99.90;;;;;;5032237;28;20471;-80
2020/12/11 03:01:45;;;;;;;28.80;25.70;;;0.90;99.90;;;;;;5033039;28;20458;-80
2020/12/11 03:04:11;;;;;;;29.70;26.50;;;0.90;99.90;;;;;;5033997;28;20450;-80
2020/12/11 03:06:37;;;;;;;30.63;26.50;;;0.90;99.90;;;;;;5034367;28;20435;-80
2020/12/11 03:09:04;;;;;;;30.87;26.43;;;0.90;99.90;;;;;;5032401;28;20873;-81
2020/12/11 03:11:30;;;;;;;29.83;25.77;;;0.90;99.90;;;;;;5032808;28;20439;-80
2020/12/11 03:13:57;;;;;;;27.67;24.83;;;0.90;99.90;;;;;;5033947;28;20435;-80
2020/12/11 03:16:24;;;;;;;30.77;26.03;;;0.90;99.90;;;;;;5024951;28;20475;-80
2020/12/11 03:18:50;;;;;;;30.87;25.37;;;0.90;99.90;;;;;;5013157;28;20522;-80
2020/12/11 03:21:16;;;;;;;29.37;26.07;;;0.90;99.90;;;;;;5026845;28;20436;-80
2020/12/11 03:23:43;;;;;;;31.27;26.17;;;1.00;99.90;;;;;;5027285;28;20850;-80
2020/12/11 03:26:09;;;;;;;29.03;25.70;;;1.00;99.90;;;;;;5021553;28;20481;-79
2020/12/11 03:28:36;;;;;;;29.20;26.00;;;1.00;99.90;;;;;;4993553;28;20461;-79
2020/12/11 03:31:03;;;;;;;28.13;25.17;;;1.00;99.90;;;;;;5024406;28;20446;-79
2020/12/11 03:33:29;;;;;;;26.83;23.93;;;1.00;99.90;;;;;;5032399;28;20960;-79
2020/12/11 03:35:56;;;;;;;31.93;25.77;;;1.00;99.90;;;;;;5023805;28;20481;-80
2020/12/11 03:38:22;;;;;;;27.67;24.80;;;1.00;99.90;;;;;;5011627;28;20487;-78
2020/12/11 03:40:49;;;;;;;28.83;25.37;;;1.00;99.90;;;;;;5013223;28;20427;-78
2020/12/11 03:43:15;;;;;;;28.60;25.67;;;0.90;99.90;;;;;;5013985;28;20964;-78
2020/12/11 03:45:42;;;;;;;26.40;23.77;;;0.90;99.90;;;;;;5029005;28;20938;-79
2020/12/11 03:48:10;;;;;;;24.77;22.27;;;0.90;99.90;;;;;;5018115;28;20529;-80
2020/12/11 03:50:36;;;;;;;25.10;22.77;;;0.80;99.90;;;;;;5020717;28;20451;-80
2020/12/11 03:53:03;;;;;;;23.67;21.27;;;0.80;99.90;;;;;;5017265;28;20474;-80
2020/12/11 03:55:31;;;;;;;24.80;22.23;;;0.70;99.90;;;;;;5014080;28;20890;-80
2020/12/11 03:57:57;;;;;;;25.43;22.77;;;0.70;99.90;;;;;;5012026;28;20483;-76
2020/12/11 04:00:23;;;;;;;27.87;25.17;;;0.60;99.90;;;;;;5010571;28;20952;-76
2020/12/11 04:02:49;;;;;;;29.80;26.60;;;0.60;99.90;;;;;;5017551;28;20822;-76
2020/12/11 04:05:17;;;;;;;30.13;26.43;;;0.60;99.90;;;;;;5025617;28;20882;-79
2020/12/11 04:07:43;;;;;;;28.90;25.80;;;0.60;99.90;;;;;;5011368;28;20948;-80
2020/12/11 04:10:09;;;;;;;29.13;25.07;;;0.60;99.90;;;;;;5010422;28;20479;-78
2020/12/11 04:12:35;;;;;;;31.27;26.67;;;0.50;99.90;;;;;;5010876;28;20825;-78
2020/12/11 04:15:01;;;;;;;29.37;25.10;;;0.50;99.90;;;;;;5011478;28;20860;-78
2020/12/11 04:17:28;;;;;;;28.70;25.60;;;0.50;99.90;;;;;;5012354;28;20479;-78
2020/12/11 04:19:54;;;;;;;27.20;24.37;;;0.40;99.90;;;;;;5009350;28;20547;-78
2020/12/11 04:22:24;;;;;;;29.10;26.00;;;0.40;99.90;;;;;;5022900;28;20446;-78
2020/12/11 04:24:50;;;;;;;30.87;26.40;;;0.40;99.90;;;;;;5032295;28;20414;-79
2020/12/11 04:27:16;;;;;;;27.77;24.90;;;0.40;99.90;;;;;;5031658;28;20485;-79
2020/12/11 04:29:43;;;;;;;28.67;25.63;;;0.50;99.90;;;;;;5029834;28;20471;-78
2020/12/11 04:32:09;;;;;;;29.77;26.57;;;0.50;99.90;;;;;;5031894;28;20954;-80
2020/12/11 04:34:35;;;;;;;28.37;25.37;;;0.50;99.90;;;;;;5030557;28;20877;-78
2020/12/11 04:37:01;;;;;;;27.87;24.97;;;0.40;99.90;;;;;;5030462;28;20529;-77
2020/12/11 04:39:29;;;;;;;27.67;24.73;;;0.40;99.90;;;;;;5031115;28;20450;-77
2020/12/11 04:41:55;;;;;;;28.17;25.33;;;0.40;99.90;;;;;;5032783;28;20862;-79
2020/12/11 04:44:21;;;;;;;29.73;26.47;;;0.40;99.90;;;;;;5033588;28;20454;-78
2020/12/11 04:46:48;;;;;;;27.53;24.83;;;0.40;99.90;;;;;;5032262;28;20430;-78
2020/12/11 04:49:14;;;;;;;30.53;24.93;;;0.40;99.90;;;;;;5030997;28;20458;-77
2020/12/11 04:51:50;;;;;;;31.00;26.90;;;0.40;99.90;;;;;;5033450;28;20489;-79
2020/12/11 04:54:21;;;;;;;28.53;25.50;;;0.40;99.90;;;;;;5030914;28;20446;-80
2020/12/11 04:56:50;;;;;;;28.27;25.27;;;0.30;99.90;;;;;;5031699;28;20461;-79
2020/12/11 04:59:16;;;;;;;28.17;25.37;;;0.30;99.90;;;;;;5029582;28;20846;-80
2020/12/11 05:01:43;;;;;;;28.73;25.73;;;0.30;99.90;;;;;;5031508;28;20468;-78
2020/12/11 05:04:09;;;;;;;28.87;25.90;;;0.20;99.90;;;;;;5029822;28;20457;-78
2020/12/11 05:06:36;;;;;;;30.50;26.57;;;0.10;99.90;;;;;;5030638;28;20441;-77
2020/12/11 05:09:13;;;;;;;30.67;26.50;;;0.10;99.90;;;;;;5029184;28;20579;-78
2020/12/11 05:11:41;;;;;;;29.20;26.37;;;0.00;99.90;;;;;;5029994;28;20442;-77
2020/12/11 05:14:19;;;;;;;28.77;25.63;;;0.00;99.90;;;;;;5030113;28;20447;-79
2020/12/11 05:17:00;;;;;;;28.60;25.37;;;0.00;99.90;;;;;;5030221;28;20513;-79
2020/12/11 05:19:28;;;;;;;27.47;24.70;;;0.00;99.90;;;;;;5029554;28;20474;-80
2020/12/11 05:21:54;;;;;;;27.30;24.60;;;0.00;99.90;;;;;;5031361;28;20431;-79
2020/12/11 05:24:21;;;;;;;26.70;23.83;;;0.00;99.90;;;;;;5031301;28;20439;-79
2020/12/11 05:26:47;;;;;;;28.07;24.43;;;0.00;99.90;;;;;;5030339;28;20493;-80
2020/12/11 05:29:13;;;;;;;27.77;24.80;;;0.00;99.90;;;;;;5030914;28;20520;-80
2020/12/11 05:31:45;;;;;;;28.07;25.17;;;0.00;99.90;;;;;;5030795;28;20435;-79
2020/12/11 05:34:13;;;;;;;27.20;24.30;;;0.00;99.90;;;;;;5030689;28;20876;-79
2020/12/11 05:36:44;;;;;;;27.33;24.43;;;-0.10;99.90;;;;;;5031516;28;20877;-80
2020/12/11 05:39:11;;;;;;;29.87;25.60;;;-0.10;99.90;;;;;;5029087;28;20521;-81
2020/12/11 05:41:38;;;;;;;30.00;25.50;;;-0.10;99.90;;;;;;5031571;28;20426;-79
2020/12/11 05:44:23;;;;;;;28.07;25.07;;;-0.10;99.90;;;;;;5031452;28;20943;-79
2020/12/11 05:46:50;;;;;;;28.57;25.57;;;-0.10;99.90;;;;;;5031366;28;20508;-81
2020/12/11 05:49:22;;;;;;;29.73;25.87;;;-0.10;99.90;;;;;;5030919;28;20486;-79
2020/12/11 05:51:57;;;;;;;28.57;25.67;;;-0.20;99.90;;;;;;5031331;28;20438;-82
2020/12/11 05:54:23;;;;;;;29.50;26.37;;;-0.20;99.90;;;;;;5029980;28;20516;-81
2020/12/11 05:56:52;;;;;;;29.80;26.63;;;-0.20;99.90;;;;;;5030082;28;20437;-79
2020/12/11 05:59:21;;;;;;;29.83;26.73;;;-0.20;99.90;;;;;;5029407;28;20581;-79
2020/12/11 06:01:55;;;;;;;27.73;24.97;;;-0.20;99.90;;;;;;5029888;28;20819;-79
2020/12/11 06:04:24;;;;;;;28.53;25.53;;;-0.30;99.90;;;;;;5030303;28;20439;-80
2020/12/11 06:06:56;;;;;;;28.03;25.10;;;-0.40;99.90;;;;;;5029487;28;20492;-79
2020/12/11 06:09:29;;;;;;;27.97;24.93;;;-0.40;99.90;;;;;;5029100;28;20550;-79
2020/12/11 06:11:59;;;;;;;30.23;27.13;;;-0.40;99.90;;;;;;5029806;28;20493;-79
2020/12/11 06:14:39;;;;;;;28.17;25.40;;;-0.40;99.90;;;;;;5029747;28;20431;-80
2020/12/11 06:17:08;;;;;;;27.83;24.97;;;-0.50;99.90;;;;;;5031035;28;20423;-79
2020/12/11 06:19:38;;;;;;;29.47;26.53;;;-0.40;99.90;;;;;;5033725;28;20554;-80
2020/12/11 06:22:06;;;;;;;30.97;26.97;;;-0.50;99.90;;;;;;5034895;28;20496;-80
2020/12/11 06:24:33;;;;;;;28.33;25.43;;;-0.40;99.90;;;;;;5033217;28;20470;-80
2020/12/11 06:27:00;;;;;;;31.97;26.50;;;-0.40;99.90;;;;;;5033202;28;20513;-80
2020/12/11 06:29:28;;;;;;;29.10;26.17;;;-0.40;99.90;;;;;;5032821;28;20501;-79
2020/12/11 06:31:55;;;;;;;28.00;25.07;;;-0.50;99.90;;;;;;5034747;28;20831;-79
2020/12/11 06:34:24;;;;;;;30.00;26.80;;;-0.50;99.90;;;;;;5033469;28;20439;-79
2020/12/11 06:36:51;;;;;;;31.60;26.30;;;-0.50;99.90;;;;;;5033559;28;20837;-79
2020/12/11 06:39:40;;;;;;;33.93;27.57;;;-0.50;99.90;;;;;;5033698;28;20918;-79
2020/12/11 06:42:07;;;;;;;32.33;26.27;;;-0.50;99.90;;;;;;5032993;28;20820;-79
2020/12/11 06:44:33;;;;;;;30.83;25.70;;;-0.40;99.90;;;;;;5032188;28;20450;-79
2020/12/11 06:47:07;;;;;;;33.47;26.27;;;-0.40;99.90;;;;;;5032833;28;20991;-79
2020/12/11 06:49:35;;;;;;;28.97;25.47;;;-0.30;99.90;;;;;;5033867;28;20489;-80
2020/12/11 06:52:12;;;;;;;28.87;25.03;;;-0.30;99.90;;;;;;5033700;28;20923;-79
2020/12/11 06:54:55;;;;;;;27.83;24.83;;;-0.20;99.90;;;;;;5032455;28;20798;-80
2020/12/11 06:57:38;;;;;;;29.00;25.07;;;-0.20;99.90;;;;;;5032640;28;20446;-79
2020/12/11 07:00:23;;;;;;;27.97;24.97;;;-0.20;99.90;;;;;;5033246;28;20435;-79
2020/12/11 07:03:28;;;;;;;29.87;25.23;;;-0.20;99.90;;;;;;5032482;28;20963;-79
2020/12/11 07:06:04;;;;;;;26.70;23.90;;;-0.20;99.90;;;;;;5032938;28;20812;-79
2020/12/11 07:08:30;;;;;;;29.77;26.30;;;-0.10;99.90;;;;;;5031674;28;20477;-79
2020/12/11 07:11:06;;;;;;;29.37;26.23;;;-0.10;99.90;;;;;;5033811;28;20998;-80
2020/12/11 07:13:35;;;;;;;29.63;26.43;;;-0.10;99.90;;;;;;5031732;28;20450;-80
2020/12/11 07:16:02;;;;;;;30.53;25.60;;;-0.10;99.90;;;;;;5032160;28;20856;-79
2020/12/11 07:18:29;;;;;;;29.17;25.90;;;-0.10;99.90;;;;;;5019519;28;20483;-79
2020/12/11 07:20:57;;;;;;;27.87;24.73;;;0.00;99.90;;;;;;5012344;28;20444;-79
2020/12/11 07:23:25;;;;;;;30.10;26.30;;;0.00;99.90;;;;;;5013730;28;20440;-80
2020/12/11 07:25:52;;;;;;;26.83;24.07;;;0.00;99.90;;;;;;5013370;28;20439;-80
2020/12/11 07:28:18;;;;;;;27.90;24.93;;;-0.10;99.90;;;;;;5011467;28;20482;-79
2020/12/11 07:30:45;;;;;;;28.83;25.70;;;0.00;99.90;;;;;;5017357;28;20434;-80
2020/12/11 07:33:12;;;;;;;28.47;25.43;;;-0.10;99.90;;;;;;5032272;28;20451;-80
2020/12/11 07:35:44;;;;;;;30.97;26.10;;;-0.10;99.90;;;;;;5015371;28;20455;-79
2020/12/11 07:38:10;;;;;;;27.23;24.33;;;0.00;99.90;;;;;;5011509;28;20479;-81
2020/12/11 07:40:37;;;;;;;27.90;25.00;;;0.00;99.90;;;;;;5012034;28;20498;-79
2020/12/11 07:43:04;;;;;;;28.50;25.53;;;0.00;99.90;;;;;;5011944;28;20463;-79
2020/12/11 07:45:35;;;;;;;27.83;24.83;;;-0.10;99.90;;;;;;5026898;28;20442;-79
2020/12/11 07:48:02;;;;;;;28.27;25.13;;;0.00;99.90;;;;;;5031732;28;20486;-80
2020/12/11 07:50:29;;;;;;;27.20;24.27;;;0.10;99.90;;;;;;5030713;28;20488;-81
2020/12/11 07:52:56;;;;;;;28.23;24.60;;;0.10;99.90;;;;;;5032856;28;20911;-80
2020/12/11 07:55:28;;;;;;;27.70;24.73;;;0.10;99.90;;;;;;5033243;28;20434;-79
2020/12/11 07:57:57;;;;;;;28.00;25.10;;;0.20;99.90;;;;;;5031346;28;21019;-79
2020/12/11 08:00:24;;;;;;;28.33;24.80;;;0.30;99.90;;;;;;5032186;28;20431;-81
2020/12/11 08:03:04;;;;;;;27.57;24.40;;;0.30;99.90;;;;;;5031510;28;20442;-79
2020/12/11 08:05:31;;;;;;;30.27;25.77;;;0.40;99.90;;;;;;5031135;28;20446;-80
2020/12/11 08:07:57;;;;;;;31.97;26.80;;;0.50;99.90;;;;;;5032563;28;20931;-80
2020/12/11 08:10:33;;;;;;;28.33;25.47;;;0.60;99.90;;;;;;5030587;28;20925;-80
2020/12/11 08:13:14;;;;;;;27.87;24.87;;;0.70;99.90;;;;;;5031039;28;20865;-80
2020/12/11 08:15:42;;;;;;;29.13;26.13;;;0.90;99.90;;;;;;5031755;28;20446;-80
2020/12/11 08:18:24;;;;;;;28.10;25.13;;;1.10;99.90;;;;;;5030813;28;20510;-80
2020/12/11 08:20:57;;;;;;;27.10;24.20;;;1.20;99.90;;;;;;5031461;28;20438;-79
2020/12/11 08:23:35;;;;;;;25.33;22.63;;;1.40;99.90;;;;;;5032244;28;20429;-80
2020/12/11 08:26:06;;;;;;;24.70;22.23;;;1.80;99.90;;;;;;5032289;28;20497;-80
2020/12/11 08:28:34;;;;;;;24.23;21.83;;;2.30;99.90;;;;;;5031371;28;21070;-81
2020/12/11 08:31:13;;;;;;;26.20;23.60;;;2.60;99.90;;;;;;5032115;28;20856;-80
2020/12/11 08:33:39;;;;;;;26.53;24.10;;;2.80;99.90;;;;;;5029627;28;21040;-80
2020/12/11 08:36:05;;;;;;;25.90;23.20;;;3.10;99.90;;;;;;5010661;28;20444;-80
2020/12/11 08:38:32;;;;;;;25.20;22.60;;;3.20;99.90;;;;;;5011249;28;20484;-81
2020/12/11 08:40:58;;;;;;;24.93;22.40;;;3.10;99.90;;;;;;5010544;28;20438;-80
2020/12/11 08:43:30;;;;;;;25.13;22.50;;;2.90;99.90;;;;;;5011117;28;20508;-80
2020/12/11 08:46:09;;;;;;;24.40;22.20;;;2.80;99.90;;;;;;5012050;28;20441;-79
2020/12/11 08:48:59;;;;;;;24.03;21.53;;;2.60;99.90;;;;;;5010016;28;20872;-80
2020/12/11 08:51:25;;;;;;;26.63;24.03;;;2.50;99.90;;;;;;5011558;28;20942;-79
2020/12/11 08:53:54;;;;;;;23.87;21.57;;;2.40;99.90;;;;;;5010637;28;20455;-81
2020/12/11 08:56:20;;;;;;;24.23;21.83;;;2.40;99.90;;;;;;5012069;28;20458;-80
2020/12/11 08:58:47;;;;;;;22.87;20.63;;;2.30;99.90;;;;;;5011534;28;21000;-79
2020/12/11 09:01:14;;;;;;;24.23;22.00;;;2.40;99.90;;;;;;5021433;28;20896;-78
2020/12/11 09:03:40;;;;;;;23.90;21.57;;;2.20;99.90;;;;;;5030147;28;20446;-81
2020/12/11 09:06:06;;;;;;;22.57;20.40;;;2.20;99.90;;;;;;5030009;28;21018;-80
2020/12/11 09:08:33;;;;;;;24.23;21.80;;;2.20;99.90;;;;;;5029564;28;20470;-80
2020/12/11 09:10:59;;;;;;;24.30;21.83;;;2.10;99.90;;;;;;5031468;28;20661;-79
2020/12/11 09:13:25;;;;;;;23.23;20.93;;;2.10;99.90;;;;;;5030186;28;20449;-80
2020/12/11 09:15:51;;;;;;;23.00;20.70;;;2.10;99.90;;;;;;5031218;28;20559;-78
2020/12/11 09:18:18;;;;;;;23.33;20.80;;;2.20;99.90;;;;;;5030593;28;20540;-80
2020/12/11 09:20:45;;;;;;;23.27;21.00;;;2.30;99.90;;;;;;5031574;28;20844;-79
2020/12/11 09:23:11;;;;;;;23.37;21.00;;;2.30;99.90;;;;;;5030067;28;20446;-79
2020/12/11 09:25:37;;;;;;;23.40;20.90;;;2.30;99.90;;;;;;5031127;28;20434;-79
2020/12/11 09:28:10;;;;;;;22.73;20.33;;;2.30;99.90;;;;;;5029569;28;20481;-80
2020/12/11 09:30:38;;;;;;;23.00;20.77;;;2.40;99.90;;;;;;5031205;28;20442;-80
2020/12/11 09:33:07;;;;;;;23.80;21.40;;;2.50;99.90;;;;;;5029697;28;20798;-81
2020/12/11 09:35:35;;;;;;;22.83;20.50;;;2.50;99.90;;;;;;5031470;28;20441;-79
2020/12/11 09:38:01;;;;;;;22.07;19.90;;;2.50;99.90;;;;;;5030520;28;20519;-79
2020/12/11 09:40:37;;;;;;;22.90;20.70;;;2.60;99.90;;;;;;5029837;28;20477;-79
2020/12/11 09:45:47;;;;;;;21.67;19.73;;;2.60;99.90;;;;;;4976622;28;20442;-80
2020/12/11 09:48:19;;;;;;;22.43;20.20;;;2.70;99.90;;;;;;5031048;28;20493;-80
2020/12/11 09:50:54;;;;;;;22.40;20.23;;;2.80;99.90;;;;;;5029903;28;20435;-79
2020/12/11 09:53:35;;;;;;;21.13;19.23;;;2.90;99.90;;;;;;5032213;28;20441;-79
2020/12/11 09:56:03;;;;;;;22.80;20.60;;;3.00;99.90;;;;;;5035114;28;20443;-80
2020/12/11 09:58:31;;;;;;;21.97;19.87;;;3.00;99.90;;;;;;5034685;28;20489;-80
2020/12/11 10:00:57;;;;;;;21.93;19.93;;;3.10;99.90;;;;;;5035208;28;20462;-80
2020/12/11 10:03:30;;;;;;;22.87;20.73;;;3.20;99.90;;;;;;5034152;28;20472;-80
2020/12/11 10:05:57;;;;;;;23.00;20.80;;;3.40;99.90;;;;;;5035420;28;20953;-80
2020/12/11 10:08:23;;;;;;;23.27;20.90;;;3.50;99.90;;;;;;5033286;28;20467;-80
2020/12/11 10:10:50;;;;;;;22.80;20.70;;;3.50;99.90;;;;;;5034052;28;20510;-80
2020/12/11 10:13:16;;;;;;;21.37;19.47;;;3.60;99.90;;;;;;5025479;28;20479;-80
2020/12/11 10:15:42;;;;;;;22.67;20.57;;;3.60;99.90;;;;;;5016165;28;20816;-80
2020/12/11 10:18:08;;;;;;;23.77;19.73;;;3.60;99.90;;;;;;5015502;28;20549;-80
2020/12/11 10:20:35;;;;;;;22.77;20.47;;;3.70;99.90;;;;;;5014794;28;20492;-79
2020/12/11 10:23:02;;;;;;;21.13;19.13;;;3.80;99.90;;;;;;5014006;28;21006;-80
2020/12/11 10:25:28;;;;;;;20.77;18.57;;;3.80;99.90;;;;;;5014027;28;20458;-80
2020/12/11 10:27:55;;;;;;;20.27;18.20;;;3.90;99.90;;;;;;5013585;28;20537;-80
2020/12/11 10:30:22;;;;;;;20.40;18.50;;;3.90;99.90;;;;;;5013004;28;20437;-82
2020/12/11 10:32:48;;;;;;;21.67;19.50;;;3.90;99.90;;;;;;5030097;28;20455;-81
2020/12/11 10:35:14;;;;;;;21.97;19.77;;;3.80;99.90;;;;;;5013790;28;20446;-79
2020/12/11 10:37:40;;;;;;;21.40;19.23;;;3.80;99.90;;;;;;5014250;28;20437;-80
2020/12/11 10:40:07;;;;;;;21.27;19.20;;;3.90;99.90;;;;;;5012944;28;20471;-79
2020/12/11 10:42:34;;;;;;;20.80;18.80;;;3.90;99.90;;;;;;5014910;28;20440;-81
2020/12/11 10:45:00;;;;;;;20.80;18.77;;;4.00;99.90;;;;;;5031525;28;20868;-81
2020/12/11 10:47:26;;;;;;;21.53;19.43;;;4.00;99.90;;;;;;5033309;28;20449;-81
2020/12/11 10:49:53;;;;;;;21.80;19.70;;;4.00;99.90;;;;;;5032920;28;20918;-80
2020/12/11 10:52:20;;;;;;;22.40;20.13;;;4.00;99.90;;;;;;5034725;28;20493;-80
2020/12/11 10:54:46;;;;;;;22.90;20.53;;;4.00;99.90;;;;;;5042825;28;20461;-82
2020/12/11 10:57:13;;;;;;;22.53;20.23;;;3.80;99.90;;;;;;5041656;28;20866;-80
2020/12/11 10:59:40;;;;;;;22.33;20.00;;;3.80;99.90;;;;;;5041323;28;20497;-82
2020/12/11 11:02:06;;;;;;;20.97;19.07;;;3.80;99.90;;;;;;5024858;28;20431;-83
2020/12/11 11:04:32;;;;;;;21.43;19.33;;;3.70;99.90;;;;;;5022323;28;20958;-80
2020/12/11 11:07:01;;;;;;;20.70;18.80;;;3.70;99.90;;;;;;5022414;28;20970;-80
2020/12/11 11:09:38;;;;;;;21.93;19.83;;;3.80;99.90;;;;;;5040802;28;20477;-80
2020/12/11 11:12:17;;;;;;;21.00;18.83;;;3.90;99.90;;;;;;5039624;28;20472;-81
2020/12/11 11:20:27;;;;;;;23.23;20.80;;;3.90;99.90;;;;;;5033420;28;20479;-81
2020/12/11 11:22:59;;;;;;;23.37;21.07;;;4.00;99.90;;;;;;5034006;28;20449;-81
2020/12/11 11:25:48;;;;;;;22.43;20.13;;;4.00;99.90;;;;;;5033582;28;20442;-81
2020/12/11 11:28:13;;;;;;;23.87;21.33;;;4.10;99.90;;;;;;5032940;28;20470;-80
2020/12/11 11:30:41;;;;;;;23.67;21.37;;;4.10;99.90;;;;;;5034668;28;20484;-81
2020/12/11 11:33:07;;;;;;;23.77;21.27;;;3.90;99.90;;;;;;5033371;28;20617;-82
2020/12/11 11:35:33;;;;;;;23.97;21.57;;;3.80;99.90;;;;;;5034038;28;20446;-80
2020/12/11 11:38:01;;;;;;;26.20;23.57;;;3.70;99.90;;;;;;5034215;28;20461;-81
2020/12/11 11:40:27;;;;;;;24.43;22.07;;;3.50;99.90;;;;;;5032892;28;20503;-82
2020/12/11 11:42:53;;;;;;;23.53;21.30;;;3.40;99.90;;;;;;5035266;28;20426;-80
2020/12/11 11:45:21;;;;;;;24.30;21.90;;;3.40;99.90;;;;;;5033280;28;20450;-81
2020/12/11 11:47:51;;;;;;;23.33;21.03;;;3.40;99.90;;;;;;5034441;28;20834;-81
2020/12/11 11:50:32;;;;;;;25.03;22.53;;;3.40;99.90;;;;;;5032193;28;20484;-80
2020/12/11 11:53:02;;;;;;;23.33;21.03;;;3.30;99.90;;;;;;5033008;28;20443;-82
2020/12/11 11:55:28;;;;;;;23.77;21.67;;;3.40;99.90;;;;;;5032990;28;20443;-81
2020/12/11 11:57:54;;;;;;;23.97;21.63;;;3.40;99.90;;;;;;5032625;28;20858;-80
2020/12/11 12:00:21;;;;;;;23.67;21.43;;;3.40;99.90;;;;;;5032137;28;20450;-80
2020/12/11 12:02:48;;;;;;;23.07;20.97;;;3.50;99.90;;;;;;5034291;28;20430;-81
2020/12/11 12:05:15;;;;;;;23.63;21.43;;;3.60;99.90;;;;;;5032580;28;20439;-81
2020/12/11 12:07:41;;;;;;;24.03;21.87;;;3.70;99.90;;;;;;5032763;28;20584;-82
2020/12/11 12:10:09;;;;;;;23.03;21.03;;;3.80;99.90;;;;;;5031919;28;20926;-81
2020/12/11 12:12:38;;;;;;;21.03;19.00;;;3.90;99.90;;;;;;5033593;28;20986;-80
2020/12/11 12:15:06;;;;;;;20.70;18.90;;;4.00;99.90;;;;;;5031842;28;20985;-81
2020/12/11 12:17:37;;;;;;;19.77;18.00;;;4.10;99.90;;;;;;5031902;28;20454;-80
2020/12/11 12:20:08;;;;;;;18.93;17.10;;;4.20;99.90;;;;;;5032985;28;20481;-82
2020/12/11 12:30:43;;;;;;;19.03;17.30;;;4.60;99.90;;;;;;5031577;28;20203;-80
2020/12/11 12:35:58;;;;;;;18.13;16.63;;;4.70;99.90;;;;;;4989717;28;20207;-81
2020/12/11 12:38:34;;;;;;;19.13;17.43;;;4.70;99.90;;;;;;5031004;28;20474;-80
2020/12/11 12:44:00;;;;;;;19.07;17.37;;;4.70;99.90;;;;;;4971237;28;20197;-80
2020/12/11 12:46:26;;;;;;;18.97;17.27;;;4.70;99.90;;;;;;4971226;28;20484;-81
2020/12/11 12:48:53;;;;;;;17.63;16.23;;;4.70;99.90;;;;;;4986100;28;20215;-81
2020/12/11 12:51:20;;;;;;;18.30;16.80;;;4.70;99.90;;;;;;5030487;28;20204;-79
2020/12/11 12:53:46;;;;;;;19.33;17.73;;;4.70;99.90;;;;;;5030462;28;20195;-81
2020/12/11 12:56:34;;;;;;;20.37;18.57;;;4.80;99.90;;;;;;5031226;28;20442;-80
2020/12/11 12:59:04;;;;;;;20.07;18.37;;;4.80;99.90;;;;;;5030532;28;20257;-80
2020/12/11 13:01:37;;;;;;;21.47;19.47;;;4.70;99.90;;;;;;5030870;28;20196;-79
2020/12/11 13:04:16;;;;;;;21.17;19.27;;;4.70;99.90;;;;;;5022747;28;20452;-80